createdAt,value
2022-07-27T00:00:51.274Z,16.90
2022-07-27T00:05:56.813Z,16.80
2022-07-27T00:11:01.877Z,16.70
2022-07-27T00:16:07.000Z,16.90
2022-07-27T00:21:12.738Z,17.00
2022-07-27T00:26:18.337Z,17.00
2022-07-27T00:31:24.056Z,16.70
2022-07-27T00:36:30.445Z,16.70
2022-07-27T00:41:36.923Z,16.90
2022-07-27T00:46:42.331Z,16.70
2022-07-27T00:51:50.139Z,16.70
2022-07-27T00:56:56.730Z,16.40
2022-07-27T01:02:03.265Z,16.60
2022-07-27T01:07:09.790Z,16.70
2022-07-27T01:12:20.679Z,16.40
2022-07-27T01:17:27.295Z,16.60
2022-07-27T01:22:33.293Z,16.40
2022-07-27T01:27:38.757Z,16.60
2022-07-27T01:32:44.382Z,16.30
2022-07-27T01:37:49.253Z,16.60
2022-07-27T01:42:54.909Z,16.40
2022-07-27T01:48:02.162Z,16.30
2022-07-27T01:53:09.255Z,16.50
2022-07-27T01:58:15.924Z,16.60
2022-07-27T02:03:22.001Z,16.30
2022-07-27T02:08:29.758Z,16.60
2022-07-27T02:13:34.659Z,16.50
2022-07-27T02:18:39.692Z,16.60
2022-07-27T02:23:47.459Z,16.50
2022-07-27T02:28:52.392Z,16.50
2022-07-27T02:33:58.017Z,16.50
2022-07-27T02:39:03.426Z,16.20
2022-07-27T02:44:09.285Z,16.40
2022-07-27T02:49:14.708Z,16.40
2022-07-27T02:54:21.987Z,16.40
2022-07-27T02:59:27.787Z,16.10
2022-07-27T03:04:34.304Z,16.10
2022-07-27T03:09:39.398Z,16.30
2022-07-27T03:14:44.333Z,16.20
2022-07-27T03:19:49.891Z,16.30
2022-07-27T03:24:54.898Z,16.10
2022-07-27T03:29:59.977Z,15.90
2022-07-27T03:35:05.600Z,16.10
2022-07-27T03:40:11.750Z,16.20
2022-07-27T03:45:16.940Z,16.00
2022-07-27T03:50:22.783Z,16.10
2022-07-27T03:55:29.050Z,16.30
2022-07-27T04:00:34.212Z,16.30
2022-07-27T04:05:39.572Z,16.50
2022-07-27T04:10:45.503Z,16.60
2022-07-27T04:15:50.496Z,16.50
2022-07-27T04:20:55.367Z,16.30
2022-07-27T04:26:00.984Z,16.60
2022-07-27T04:31:06.318Z,16.70
2022-07-27T04:36:12.499Z,16.70
2022-07-27T04:41:17.577Z,16.80
2022-07-27T04:46:23.754Z,16.70
2022-07-27T04:51:34.323Z,16.60
2022-07-27T04:56:36.325Z,16.70
2022-07-27T05:01:41.898Z,16.70
2022-07-27T05:06:47.445Z,16.80
2022-07-27T05:11:53.195Z,16.80
2022-07-27T05:16:58.661Z,17.10
2022-07-27T05:22:03.946Z,17.10
2022-07-27T05:27:09.426Z,17.10
2022-07-27T05:32:15.741Z,17.40
2022-07-27T05:37:21.568Z,17.20
2022-07-27T05:42:27.379Z,17.20
2022-07-27T05:47:32.274Z,17.20
2022-07-27T05:52:38.940Z,17.10
2022-07-27T05:57:44.575Z,17.00
2022-07-27T06:02:49.755Z,17.10
2022-07-27T06:08:00.672Z,17.20
2022-07-27T06:13:08.402Z,17.10
2022-07-27T06:18:15.661Z,17.00
2022-07-27T06:23:20.897Z,17.30
2022-07-27T06:28:26.091Z,17.30
2022-07-27T06:33:31.743Z,17.20
2022-07-27T06:38:37.761Z,17.60
2022-07-27T06:43:43.145Z,17.80
2022-07-27T06:48:48.456Z,18.00
2022-07-27T06:53:55.143Z,17.90
2022-07-27T06:58:59.721Z,18.30
2022-07-27T07:04:05.509Z,18.30
2022-07-27T07:09:11.826Z,18.40
2022-07-27T07:14:17.183Z,18.50
2022-07-27T07:19:22.284Z,18.50
2022-07-27T07:24:29.610Z,18.70
2022-07-27T07:29:35.220Z,18.80
2022-07-27T07:34:40.442Z,18.90
2022-07-27T07:39:46.520Z,18.70
2022-07-27T07:44:52.419Z,18.70
2022-07-27T07:49:57.430Z,18.20
2022-07-27T07:55:03.039Z,18.20
2022-07-27T08:00:10.649Z,18.10
2022-07-27T08:05:16.816Z,18.30
2022-07-27T08:10:23.025Z,18.30
2022-07-27T08:15:35.607Z,18.00
2022-07-27T08:20:38.845Z,17.90
2022-07-27T08:25:45.186Z,18.00
2022-07-27T08:30:50.967Z,18.10
2022-07-27T08:35:57.467Z,17.90
2022-07-27T08:41:03.529Z,17.70
2022-07-27T08:46:11.788Z,17.50
2022-07-27T08:51:17.228Z,17.60
2022-07-27T08:56:23.254Z,17.50
2022-07-27T09:01:31.271Z,17.60
2022-07-27T09:06:54.174Z,17.50
2022-07-27T09:12:11.694Z,17.20
2022-07-27T09:17:48.013Z,16.80
2022-07-27T09:22:43.203Z,16.90
2022-07-27T09:27:49.790Z,17.10
2022-07-27T09:33:01.023Z,17.20
2022-07-27T09:38:21.630Z,17.30
2022-07-27T09:48:36.447Z,17.60
2022-07-27T09:53:43.795Z,17.50
2022-07-27T09:58:51.814Z,17.60
2022-07-27T10:04:00.408Z,17.70
2022-07-27T10:09:06.122Z,17.60
2022-07-27T10:14:11.604Z,17.50
2022-07-27T10:19:23.397Z,17.70
2022-07-27T10:24:34.917Z,17.60
2022-07-27T10:29:40.237Z,18.00
2022-07-27T10:34:45.822Z,18.10
2022-07-27T10:39:57.161Z,18.00
2022-07-27T10:45:11.807Z,17.90
2022-07-27T10:50:20.451Z,17.90
2022-07-27T10:55:36.796Z,18.00
2022-07-27T11:00:55.465Z,18.00
2022-07-27T11:06:32.069Z,18.20
2022-07-27T11:11:21.637Z,17.60
2022-07-27T11:16:28.988Z,17.70
2022-07-27T11:21:37.653Z,17.80
2022-07-27T11:26:47.000Z,17.80
2022-07-27T11:31:57.522Z,17.90
2022-07-27T11:37:03.530Z,18.20
2022-07-27T11:42:11.992Z,17.80
2022-07-27T11:47:20.751Z,17.90
2022-07-27T11:52:25.932Z,17.80
2022-07-27T11:57:34.186Z,17.80
2022-07-27T12:02:41.384Z,18.10
2022-07-27T12:07:47.459Z,18.10
2022-07-27T12:12:54.365Z,18.20
2022-07-27T12:18:00.089Z,18.00
2022-07-27T12:23:06.970Z,17.90
2022-07-27T12:28:16.583Z,17.60
2022-07-27T12:33:42.519Z,17.50
2022-07-27T12:38:51.163Z,17.40
2022-07-27T12:44:13.853Z,17.30
2022-07-27T12:49:19.433Z,17.50
2022-07-27T12:54:25.153Z,17.20
2022-07-27T12:59:30.799Z,17.40
2022-07-27T13:04:36.046Z,17.40
2022-07-27T13:10:02.172Z,17.30
2022-07-27T13:14:49.182Z,17.30
2022-07-27T13:19:54.211Z,17.50
2022-07-27T13:24:59.852Z,17.30
2022-07-27T13:30:07.043Z,17.30
2022-07-27T13:35:13.202Z,17.30
2022-07-27T13:40:18.489Z,17.60
2022-07-27T13:45:24.080Z,17.60
2022-07-27T13:50:29.400Z,18.10
2022-07-27T13:55:34.524Z,17.90
2022-07-27T14:00:41.132Z,17.80
2022-07-27T14:05:49.206Z,17.70
2022-07-27T14:10:53.015Z,17.90
2022-07-27T14:15:58.026Z,17.70
2022-07-27T14:21:07.503Z,17.50
2022-07-27T14:26:13.571Z,17.50
2022-07-27T14:31:18.360Z,17.70
2022-07-27T14:36:23.676Z,17.60
2022-07-27T14:41:29.643Z,17.50
2022-07-27T14:46:34.588Z,17.60
2022-07-27T14:51:39.888Z,17.80
2022-07-27T14:56:45.357Z,18.00
2022-07-27T15:01:50.576Z,18.20
2022-07-27T15:06:58.619Z,18.30
2022-07-27T15:12:07.290Z,18.90
2022-07-27T15:17:13.467Z,19.60
2022-07-27T15:22:19.084Z,19.50
2022-07-27T15:27:23.718Z,19.80
2022-07-27T15:32:29.421Z,19.70
2022-07-27T15:37:35.673Z,19.80
2022-07-27T15:42:41.029Z,19.50
2022-07-27T15:47:49.531Z,19.20
2022-07-27T15:52:53.042Z,19.40
2022-07-27T15:57:59.102Z,19.50
2022-07-27T16:03:05.716Z,19.20
2022-07-27T16:08:12.326Z,19.20
2022-07-27T16:13:17.378Z,19.50
2022-07-27T16:18:23.578Z,19.40
2022-07-27T16:23:29.304Z,19.30
2022-07-27T16:28:39.658Z,19.40
2022-07-27T16:33:47.681Z,19.70
2022-07-27T16:38:55.379Z,19.70
2022-07-27T16:44:01.544Z,19.60
2022-07-27T16:49:07.183Z,19.80
2022-07-27T16:54:13.219Z,19.60
2022-07-27T16:59:18.900Z,19.60
2022-07-27T17:04:24.541Z,19.50
2022-07-27T17:09:29.907Z,19.50
2022-07-27T17:14:34.883Z,19.40
2022-07-27T17:19:42.064Z,19.40
2022-07-27T17:24:47.562Z,19.50
2022-07-27T17:29:53.170Z,19.40
2022-07-27T17:34:58.042Z,19.30
2022-07-27T17:40:03.443Z,19.00
2022-07-27T17:45:09.986Z,19.10
2022-07-27T17:50:17.632Z,18.90
2022-07-27T17:55:22.891Z,18.90
2022-07-27T18:00:27.851Z,18.70
2022-07-27T18:05:34.460Z,18.30
2022-07-27T18:10:40.180Z,18.30
2022-07-27T18:15:51.069Z,18.20
2022-07-27T18:20:58.274Z,18.00
2022-07-27T18:26:03.792Z,17.70
2022-07-27T18:31:10.767Z,17.40
2022-07-27T18:36:17.773Z,17.40
2022-07-27T18:41:24.313Z,17.00
2022-07-27T18:46:29.859Z,16.70
2022-07-27T18:51:35.896Z,16.40
2022-07-27T18:56:42.418Z,16.00
2022-07-27T19:01:48.031Z,15.80
2022-07-27T19:06:54.997Z,15.80
2022-07-27T19:12:05.956Z,15.50
2022-07-27T19:17:10.838Z,15.40
2022-07-27T19:22:20.195Z,15.30
2022-07-27T19:27:26.588Z,15.10
2022-07-27T19:32:32.379Z,14.90
2022-07-27T19:37:39.959Z,15.00
2022-07-27T19:42:45.585Z,15.10
2022-07-27T19:47:51.288Z,14.90
2022-07-27T19:52:56.947Z,14.80
2022-07-27T19:58:02.977Z,14.60
2022-07-27T20:03:07.938Z,14.70
2022-07-27T20:08:13.582Z,14.60
2022-07-27T20:13:19.799Z,14.10
2022-07-27T20:18:26.890Z,14.10
2022-07-27T20:23:34.441Z,13.90
2022-07-27T20:28:40.884Z,13.90
2022-07-27T20:33:46.370Z,13.70
2022-07-27T20:38:52.221Z,13.90
2022-07-27T20:43:57.598Z,13.10
2022-07-27T20:49:03.156Z,13.30
2022-07-27T20:54:08.624Z,13.00
2022-07-27T20:59:16.617Z,12.60
2022-07-27T21:04:22.227Z,12.80
2022-07-27T21:09:27.039Z,12.40
2022-07-27T21:14:32.635Z,12.40
2022-07-27T21:19:38.977Z,12.30
2022-07-27T21:24:44.837Z,12.60
2022-07-27T21:29:51.575Z,11.90
2022-07-27T21:34:57.536Z,11.90
2022-07-27T21:40:02.674Z,12.30
2022-07-27T21:45:09.628Z,12.10
2022-07-27T21:50:14.706Z,12.00
2022-07-27T21:55:22.791Z,12.30
2022-07-27T22:00:28.859Z,12.10
2022-07-27T22:05:34.123Z,12.10
2022-07-27T22:10:39.276Z,12.00
2022-07-27T22:15:44.795Z,11.60
2022-07-27T22:20:50.796Z,11.90
2022-07-27T22:25:56.909Z,11.60
2022-07-27T22:31:21.673Z,11.50
2022-07-27T22:36:12.027Z,11.70
2022-07-27T22:41:18.132Z,11.10
2022-07-27T22:46:25.826Z,11.40
2022-07-27T22:51:50.424Z,11.20
2022-07-27T22:56:37.034Z,11.30
2022-07-27T23:01:46.720Z,11.10
2022-07-27T23:06:49.100Z,11.20
2022-07-27T23:11:55.828Z,11.00
2022-07-27T23:17:03.019Z,10.80
2022-07-27T23:22:10.852Z,10.90
2022-07-27T23:27:14.781Z,10.40
2022-07-27T23:32:20.767Z,10.40
2022-07-27T23:37:26.003Z,10.80
2022-07-27T23:42:31.959Z,10.60
2022-07-27T23:47:37.968Z,10.60
2022-07-27T23:52:44.150Z,10.40
2022-07-27T23:57:49.781Z,10.50
